Time;durP1;ratioP1;P1;durP2;ratioP2;P2;SDS_P1;SDS_P2;PMS_P1;PMS_P2;Temp;Humidity;BMP_temperature;BMP_pressure;BME280_temperature;BME280_humidity;BME280_pressure;Samples;Min_cycle;Max_cycle;Signal;HPM_P1;HPM_P2
2022/03/12 00:01:05;;;;;;;9.60;6.50;;;10.60;61.80;;;;;;5078026;28;20107;-41
2022/03/12 00:03:31;;;;;;;8.10;5.70;;;10.60;61.90;;;;;;5069985;28;20025;-43
2022/03/12 00:05:57;;;;;;;8.40;6.07;;;10.60;61.80;;;;;;5075221;28;20093;-42
2022/03/12 00:08:47;;;;;;;8.32;5.75;;;10.60;61.70;;;;;;5073059;28;20029;-42
2022/03/12 00:11:45;;;;;;;7.40;5.70;;;10.60;61.70;;;;;;5076338;28;20813;-42
2022/03/12 00:14:12;;;;;;;6.35;5.00;;;10.60;61.60;;;;;;5068133;28;20110;-42
2022/03/12 00:16:38;;;;;;;7.95;5.97;;;10.60;61.60;;;;;;5078603;28;20020;-42
2022/03/12 00:19:05;;;;;;;7.05;5.82;;;10.60;61.50;;;;;;5068864;28;20609;-41
2022/03/12 00:21:35;;;;;;;7.70;5.43;;;10.60;61.50;;;;;;5075778;28;20491;-40
2022/03/12 00:24:02;;;;;;;7.97;6.00;;;10.60;61.50;;;;;;5070824;28;20111;-42
2022/03/12 00:26:29;;;;;;;8.40;5.75;;;10.60;61.60;;;;;;5073067;28;20070;-42
2022/03/12 00:28:55;;;;;;;7.05;5.53;;;10.50;61.50;;;;;;5072850;28;20392;-42
2022/03/12 00:31:22;;;;;;;9.23;5.93;;;10.50;61.60;;;;;;5071496;28;20027;-43
2022/03/12 00:33:48;;;;;;;6.07;5.35;;;10.50;61.60;;;;;;5074810;28;20032;-43
2022/03/12 00:36:15;;;;;;;9.82;6.15;;;10.50;61.70;;;;;;5068731;28;20685;-41
2022/03/12 00:38:41;;;;;;;8.50;5.68;;;10.40;61.80;;;;;;5077372;28;20112;-43
2022/03/12 00:41:07;;;;;;;6.18;4.70;;;10.40;61.80;;;;;;5067979;28;20484;-41
2022/03/12 00:43:33;;;;;;;6.95;5.30;;;10.40;61.90;;;;;;5078457;28;20032;-43
2022/03/12 00:45:59;;;;;;;8.30;5.97;;;10.40;61.80;;;;;;5067345;28;20526;-42
2022/03/12 00:48:25;;;;;;;7.20;5.53;;;10.40;61.80;;;;;;5077055;28;20056;-42
2022/03/12 00:50:50;;;;;;;8.10;5.70;;;10.40;61.80;;;;;;5066656;28;20028;-42
2022/03/12 00:53:16;;;;;;;7.45;5.43;;;10.30;61.80;;;;;;5079468;28;20032;-41
2022/03/12 00:55:42;;;;;;;6.90;5.53;;;10.30;61.80;;;;;;5065940;28;20052;-41
2022/03/12 00:58:08;;;;;;;8.43;6.25;;;10.30;62.00;;;;;;5079045;28;20012;-42
2022/03/12 01:00:34;;;;;;;8.43;5.78;;;10.20;61.90;;;;;;5067454;28;20020;-42
2022/03/12 01:03:00;;;;;;;7.00;5.25;;;10.20;62.00;;;;;;5075353;28;20031;-41
2022/03/12 01:05:47;;;;;;;6.72;5.00;;;10.20;62.10;;;;;;5070330;28;20027;-42
2022/03/12 01:08:13;;;;;;;7.80;5.78;;;10.20;62.10;;;;;;5075309;28;20111;-42
2022/03/12 01:10:39;;;;;;;8.90;6.15;;;10.20;62.20;;;;;;5069406;28;20040;-42
2022/03/12 01:13:04;;;;;;;7.22;5.20;;;10.10;62.30;;;;;;5072409;28;20044;-41
2022/03/12 01:15:32;;;;;;;9.65;5.68;;;10.10;62.40;;;;;;5071666;28;20476;-45
2022/03/12 01:17:58;;;;;;;6.20;5.45;;;10.10;62.40;;;;;;5071245;28;20028;-42
2022/03/12 01:20:23;;;;;;;8.50;5.25;;;10.10;62.50;;;;;;5074344;28;20034;-42
2022/03/12 01:22:49;;;;;;;7.15;5.57;;;10.10;62.50;;;;;;5066874;28;20384;-41
2022/03/12 01:25:14;;;;;;;8.25;5.60;;;10.10;62.60;;;;;;5076791;28;20028;-42
2022/03/12 01:27:40;;;;;;;7.47;5.35;;;10.10;62.70;;;;;;5067974;28;20024;-42
2022/03/12 01:30:07;;;;;;;9.02;5.80;;;10.10;62.70;;;;;;5076828;28;20403;-41
2022/03/12 01:32:33;;;;;;;7.63;5.70;;;10.10;62.60;;;;;;5066427;28;20040;-39
2022/03/12 01:34:59;;;;;;;6.70;5.60;;;10.20;62.60;;;;;;5078244;28;20056;-41
2022/03/12 01:37:25;;;;;;;6.72;5.50;;;10.20;62.60;;;;;;5065163;28;20044;-39
2022/03/12 01:39:50;;;;;;;8.27;5.93;;;10.20;62.50;;;;;;5078652;28;20387;-40
2022/03/12 01:42:19;;;;;;;7.80;6.22;;;10.20;62.60;;;;;;5066943;28;20120;-41
2022/03/12 01:44:45;;;;;;;8.85;5.72;;;10.30;62.60;;;;;;5077064;28;20108;-42
2022/03/12 01:47:11;;;;;;;8.25;5.80;;;10.30;62.70;;;;;;5066178;28;20048;-40
2022/03/12 01:49:37;;;;;;;7.70;5.60;;;10.30;63.40;;;;;;5071498;28;20016;-42
2022/03/12 01:52:04;;;;;;;8.35;6.00;;;10.30;62.80;;;;;;5082530;28;20024;-42
2022/03/12 01:54:29;;;;;;;7.13;5.63;;;10.30;62.90;;;;;;5078702;28;20115;-40
2022/03/12 01:56:58;;;;;;;7.10;5.70;;;10.40;63.00;;;;;;5080475;28;20127;-40
2022/03/12 01:59:24;;;;;;;8.73;6.10;;;10.40;63.10;;;;;;5080205;28;20414;-42
2022/03/12 02:01:55;;;;;;;8.95;5.90;;;10.40;63.30;;;;;;5077836;28;20024;-42
2022/03/12 02:04:22;;;;;;;7.80;6.25;;;10.40;63.50;;;;;;5082299;28;20055;-42
2022/03/12 02:06:48;;;;;;;7.13;5.80;;;10.40;63.70;;;;;;5076311;28;20024;-41
2022/03/12 02:09:15;;;;;;;9.35;6.50;;;10.40;64.00;;;;;;5084668;28;20035;-41
2022/03/12 02:11:43;;;;;;;10.57;6.40;;;10.40;64.20;;;;;;5073200;28;20497;-40
2022/03/12 02:14:12;;;;;;;14.57;6.82;;;10.40;64.40;;;;;;5083705;28;20054;-42
2022/03/12 02:16:42;;;;;;;9.25;6.28;;;10.40;64.80;;;;;;5074228;28;20474;-40
2022/03/12 02:19:08;;;;;;;9.20;6.07;;;10.30;65.00;;;;;;5084212;28;20032;-42
2022/03/12 02:21:43;;;;;;;10.02;5.75;;;10.30;65.30;;;;;;5073548;28;20455;-43
2022/03/12 02:24:10;;;;;;;8.50;6.80;;;10.30;65.70;;;;;;5085925;28;20098;-41
2022/03/12 02:26:38;;;;;;;7.63;6.10;;;10.30;66.10;;;;;;5076247;28;20017;-42
2022/03/12 02:29:06;;;;;;;7.63;5.90;;;10.30;66.60;;;;;;5065394;28;20029;-41
2022/03/12 02:31:31;;;;;;;7.38;6.07;;;10.30;66.80;;;;;;5077482;28;20016;-47
2022/03/12 02:34:01;;;;;;;7.82;6.60;;;10.20;67.00;;;;;;5064665;28;20060;-44
2022/03/12 02:36:28;;;;;;;9.52;6.40;;;10.20;67.50;;;;;;5077350;28;20024;-43
2022/03/12 02:38:58;;;;;;;7.25;6.18;;;10.20;67.70;;;;;;5065053;28;20082;-39
2022/03/12 02:41:26;;;;;;;9.38;5.88;;;10.20;67.90;;;;;;5075373;28;20088;-42
2022/03/12 02:43:52;;;;;;;8.75;6.78;;;10.20;68.30;;;;;;5066314;28;20029;-41
2022/03/12 02:46:18;;;;;;;8.55;6.60;;;10.10;68.30;;;;;;5073917;28;20115;-43
2022/03/12 02:48:49;;;;;;;8.15;5.63;;;10.10;68.60;;;;;;5068709;28;20021;-43
2022/03/12 02:51:16;;;;;;;8.27;6.22;;;10.10;68.90;;;;;;5071392;28;20597;-43
2022/03/12 02:53:42;;;;;;;7.75;6.50;;;10.10;69.10;;;;;;5070699;28;20040;-44
2022/03/12 02:56:08;;;;;;;7.40;6.50;;;10.00;69.40;;;;;;5068724;28;20068;-41
2022/03/12 02:58:33;;;;;;;9.60;5.90;;;10.00;69.60;;;;;;5073904;28;20056;-41
2022/03/12 03:01:03;;;;;;;10.57;6.25;;;10.00;69.60;;;;;;5065891;28;20148;-43
2022/03/12 03:03:32;;;;;;;7.75;5.78;;;10.00;69.70;;;;;;5074818;28;20028;-42
2022/03/12 03:05:58;;;;;;;7.88;6.20;;;10.00;69.70;;;;;;5083798;28;20028;-43
2022/03/12 03:08:24;;;;;;;11.68;6.88;;;10.10;69.80;;;;;;5073620;28;20490;-41
2022/03/12 03:10:59;;;;;;;9.75;5.68;;;10.10;69.80;;;;;;5084167;28;20074;-42
2022/03/12 03:13:27;;;;;;;8.52;6.13;;;10.10;69.80;;;;;;5076460;28;20041;-42
2022/03/12 03:16:21;;;;;;;6.93;5.72;;;10.10;69.80;;;;;;5064379;28;20029;-40
2022/03/12 03:18:53;;;;;;;8.15;6.00;;;10.10;69.80;;;;;;5076028;28;20021;-41
2022/03/12 03:21:21;;;;;;;9.93;7.18;;;10.10;69.90;;;;;;5066943;28;20404;-42
2022/03/12 03:23:47;;;;;;;9.60;6.30;;;10.10;69.90;;;;;;5074943;28;20538;-42
2022/03/12 03:26:18;;;;;;;9.57;6.90;;;10.10;69.80;;;;;;5065301;28;20024;-41
2022/03/12 03:28:44;;;;;;;8.25;6.30;;;10.10;69.90;;;;;;5071828;28;20097;-42
2022/03/12 03:31:10;;;;;;;7.78;6.15;;;10.20;70.00;;;;;;5085236;28;20063;-42
2022/03/12 03:33:35;;;;;;;9.85;7.30;;;10.10;70.00;;;;;;5071674;28;20036;-42
2022/03/12 03:36:01;;;;;;;8.80;6.40;;;10.10;70.10;;;;;;5084515;28;20083;-42
2022/03/12 03:38:26;;;;;;;8.85;6.70;;;10.10;70.20;;;;;;5076830;28;20024;-42
2022/03/12 03:40:52;;;;;;;8.73;6.40;;;10.10;70.20;;;;;;5087325;28;20020;-38
2022/03/12 03:43:20;;;;;;;9.70;6.97;;;10.10;70.30;;;;;;5078870;28;20045;-42
2022/03/12 03:45:49;;;;;;;9.40;6.90;;;10.10;70.40;;;;;;5084276;28;20831;-41
2022/03/12 03:48:17;;;;;;;8.52;7.07;;;10.10;70.40;;;;;;5081511;28;20109;-41
2022/03/12 03:50:44;;;;;;;10.25;7.35;;;10.10;70.30;;;;;;5081532;28;20028;-41
2022/03/12 03:53:13;;;;;;;9.85;7.22;;;10.20;70.40;;;;;;5083137;28;20800;-43
2022/03/12 03:55:39;;;;;;;11.35;7.28;;;10.20;70.40;;;;;;5080587;28;20513;-43
2022/03/12 03:58:05;;;;;;;11.65;7.38;;;10.20;70.40;;;;;;5084663;28;20131;-42
2022/03/12 04:00:31;;;;;;;7.75;6.20;;;10.20;70.40;;;;;;5078390;28;20115;-42
2022/03/12 04:03:04;;;;;;;11.75;7.38;;;10.20;70.40;;;;;;5086667;28;20016;-43
2022/03/12 04:05:37;;;;;;;8.65;6.13;;;10.20;70.40;;;;;;5076023;28;20024;-42
2022/03/12 04:08:07;;;;;;;7.95;5.72;;;10.20;70.50;;;;;;5086181;28;20636;-41
2022/03/12 04:10:34;;;;;;;10.02;7.88;;;10.20;70.60;;;;;;5076736;28;20036;-42
2022/03/12 04:13:00;;;;;;;10.80;7.18;;;10.20;70.70;;;;;;5085805;28;20600;-42
2022/03/12 04:15:26;;;;;;;11.35;7.00;;;10.20;70.80;;;;;;5077158;28;20539;-42
2022/03/12 04:17:52;;;;;;;9.00;6.93;;;10.10;70.90;;;;;;5087841;28;20024;-42
2022/03/12 04:20:21;;;;;;;8.98;7.10;;;10.10;70.80;;;;;;5074760;28;20031;-42
2022/03/12 04:22:49;;;;;;;8.52;6.78;;;10.10;70.90;;;;;;5087514;28;20489;-42
2022/03/12 04:25:15;;;;;;;10.15;7.65;;;10.10;71.10;;;;;;5074369;28;20058;-41
2022/03/12 04:27:44;;;;;;;10.02;6.95;;;10.10;71.10;;;;;;5087243;28;20396;-41
2022/03/12 04:30:14;;;;;;;9.80;6.72;;;10.10;71.20;;;;;;5076788;28;20024;-42
2022/03/12 04:32:43;;;;;;;9.93;6.50;;;10.10;71.40;;;;;;5086482;28;20050;-43
2022/03/12 04:35:09;;;;;;;10.05;6.97;;;10.10;71.40;;;;;;5077871;28;20094;-43
2022/03/12 04:37:36;;;;;;;10.68;7.18;;;10.10;71.50;;;;;;5084860;28;20020;-43
2022/03/12 04:40:08;;;;;;;9.27;7.03;;;10.10;71.60;;;;;;5079250;28;20025;-41
2022/03/12 04:42:35;;;;;;;10.70;7.20;;;10.10;71.80;;;;;;5083089;28;20020;-38
2022/03/12 04:45:01;;;;;;;9.63;6.38;;;10.00;71.90;;;;;;5081140;28;20099;-41
2022/03/12 04:47:26;;;;;;;8.73;6.82;;;9.90;72.00;;;;;;5080104;28;20111;-40
2022/03/12 04:49:52;;;;;;;9.45;6.60;;;9.90;72.20;;;;;;5083044;28;20016;-39
2022/03/12 04:52:18;;;;;;;9.82;6.72;;;9.90;72.30;;;;;;5077648;28;20847;-42
2022/03/12 04:54:44;;;;;;;9.48;7.22;;;9.80;73.10;;;;;;5084483;28;20115;-41
2022/03/12 04:57:09;;;;;;;10.25;7.60;;;9.80;72.60;;;;;;5075782;28;20044;-41
2022/03/12 04:59:35;;;;;;;9.90;7.25;;;9.70;72.80;;;;;;5085170;28;20106;-42
2022/03/12 05:02:04;;;;;;;10.80;6.55;;;9.60;73.00;;;;;;5074825;28;20012;-41
2022/03/12 05:04:29;;;;;;;9.40;7.53;;;9.60;73.10;;;;;;5087271;28;20051;-42
2022/03/12 05:06:55;;;;;;;9.25;6.78;;;9.50;73.30;;;;;;5073502;28;20024;-42
2022/03/12 05:09:20;;;;;;;9.90;7.57;;;9.40;73.40;;;;;;5086353;28;20028;-42
2022/03/12 05:11:46;;;;;;;10.05;7.03;;;9.40;73.60;;;;;;5073346;28;20094;-41
2022/03/12 05:14:12;;;;;;;11.27;7.43;;;9.30;73.80;;;;;;5086013;28;20047;-38
2022/03/12 05:16:38;;;;;;;10.45;7.30;;;9.30;74.00;;;;;;5075708;28;20060;-41
2022/03/12 05:19:05;;;;;;;9.98;7.03;;;9.20;74.10;;;;;;5084623;28;20074;-41
2022/03/12 05:21:31;;;;;;;10.90;7.00;;;9.10;74.30;;;;;;5077637;28;20121;-42
2022/03/12 05:23:56;;;;;;;10.27;7.97;;;9.10;74.40;;;;;;5082380;28;20055;-42
2022/03/12 05:26:23;;;;;;;12.40;7.38;;;9.10;74.50;;;;;;5080680;28;20028;-41
2022/03/12 05:28:48;;;;;;;11.27;6.85;;;9.00;74.50;;;;;;5078572;28;20059;-44
2022/03/12 05:31:14;;;;;;;10.05;7.30;;;9.00;74.70;;;;;;5083423;28;20054;-42
2022/03/12 05:33:40;;;;;;;12.60;7.57;;;8.90;74.70;;;;;;5076670;28;20035;-41
2022/03/12 05:36:06;;;;;;;9.98;6.80;;;8.90;74.90;;;;;;5084708;28;20048;-41
2022/03/12 05:38:34;;;;;;;9.25;7.03;;;8.80;74.90;;;;;;5074804;28;20028;-42
2022/03/12 05:41:00;;;;;;;10.02;6.78;;;8.80;75.00;;;;;;5084480;28;20024;-42
2022/03/12 05:43:26;;;;;;;9.10;7.43;;;8.80;75.10;;;;;;5074731;28;20020;-40
2022/03/12 05:45:53;;;;;;;8.95;6.45;;;8.80;75.30;;;;;;5086004;28;20058;-40
2022/03/12 05:48:19;;;;;;;11.95;7.60;;;8.70;75.30;;;;;;5075103;28;20035;-39
2022/03/12 05:50:48;;;;;;;10.43;6.97;;;8.70;75.40;;;;;;5085152;28;20391;-41
2022/03/12 05:53:16;;;;;;;10.23;7.88;;;8.70;75.60;;;;;;5073224;28;20056;-42
2022/03/12 05:55:42;;;;;;;11.40;7.68;;;8.70;75.60;;;;;;5085637;28;20063;-42
2022/03/12 05:58:09;;;;;;;12.52;7.78;;;8.70;75.70;;;;;;5073997;28;20021;-42
2022/03/12 06:00:35;;;;;;;9.15;7.50;;;8.60;75.70;;;;;;5085124;28;20099;-42
2022/03/12 06:03:01;;;;;;;10.27;7.57;;;8.60;75.80;;;;;;5076546;28;20074;-43
2022/03/12 06:05:27;;;;;;;9.77;6.95;;;8.60;75.90;;;;;;5081467;28;20024;-38
2022/03/12 06:07:54;;;;;;;9.80;7.40;;;8.60;76.10;;;;;;5078902;28;20024;-41
2022/03/12 06:10:24;;;;;;;9.98;7.55;;;8.60;76.20;;;;;;5080491;28;20034;-42
2022/03/12 06:12:53;;;;;;;15.40;7.25;;;8.50;76.30;;;;;;5079925;28;20051;-39
2022/03/12 06:15:21;;;;;;;9.15;7.28;;;8.50;76.50;;;;;;5078850;28;20070;-40
2022/03/12 06:17:49;;;;;;;10.43;6.65;;;8.50;76.60;;;;;;5081208;28;20109;-42
2022/03/12 06:20:20;;;;;;;9.93;7.50;;;8.50;76.60;;;;;;5076997;28;20032;-41
2022/03/12 06:22:47;;;;;;;8.50;6.63;;;8.50;77.20;;;;;;5083914;28;20012;-42
2022/03/12 06:25:14;;;;;;;9.93;6.80;;;8.60;76.80;;;;;;5074261;28;20627;-43
2022/03/12 06:27:42;;;;;;;9.73;7.10;;;8.60;76.70;;;;;;5084359;28;20020;-42
2022/03/12 06:30:10;;;;;;;8.57;6.43;;;8.60;76.80;;;;;;5073917;28;20669;-40
2022/03/12 06:32:42;;;;;;;10.15;7.38;;;8.60;76.80;;;;;;5084010;28;20249;-41
2022/03/12 06:35:10;;;;;;;8.80;6.78;;;8.60;77.00;;;;;;5076974;28;20024;-41
2022/03/12 06:37:35;;;;;;;7.97;6.07;;;8.60;77.00;;;;;;5065350;28;20017;-38
2022/03/12 06:40:01;;;;;;;9.40;6.55;;;8.60;77.10;;;;;;5077073;28;20032;-42
2022/03/12 06:42:32;;;;;;;8.75;6.82;;;8.60;77.20;;;;;;5065453;28;20032;-44
2022/03/12 06:44:58;;;;;;;8.77;7.00;;;8.60;77.50;;;;;;5078058;28;20039;-41
2022/03/12 06:47:29;;;;;;;10.68;7.18;;;8.60;78.40;;;;;;5065188;28;20016;-43
2022/03/12 06:50:00;;;;;;;9.52;7.40;;;8.70;77.80;;;;;;5070687;28;20035;-41
2022/03/12 06:52:29;;;;;;;11.95;7.38;;;8.70;78.00;;;;;;5065838;28;20036;-41
2022/03/12 06:54:55;;;;;;;11.43;7.65;;;8.70;78.00;;;;;;5073955;28;20039;-41
2022/03/12 06:57:21;;;;;;;11.13;7.32;;;8.70;78.20;;;;;;5066996;28;20040;-42
2022/03/12 06:59:47;;;;;;;12.77;7.78;;;8.70;78.00;;;;;;5072014;28;20553;-42
2022/03/12 07:02:13;;;;;;;8.38;6.40;;;8.80;78.20;;;;;;5069652;28;20048;-44
2022/03/12 07:04:39;;;;;;;10.55;7.28;;;8.70;78.20;;;;;;5070712;28;20603;-43
2022/03/12 07:07:05;;;;;;;9.30;7.15;;;8.80;78.40;;;;;;5070871;28;20036;-39
2022/03/12 07:09:31;;;;;;;8.73;6.65;;;8.90;78.40;;;;;;5067835;28;20090;-41
2022/03/12 07:11:58;;;;;;;9.68;7.57;;;8.90;78.50;;;;;;5076693;28;20048;-43
2022/03/12 07:14:24;;;;;;;10.38;7.65;;;8.90;78.40;;;;;;5069603;28;20036;-39
2022/03/12 07:16:51;;;;;;;8.48;6.65;;;9.00;78.50;;;;;;5079847;28;20158;-42
2022/03/12 07:19:16;;;;;;;9.50;7.05;;;9.00;78.50;;;;;;5070291;28;20039;-41
2022/03/12 07:21:42;;;;;;;8.13;6.50;;;9.00;78.50;;;;;;5079020;28;20046;-44
2022/03/12 07:24:07;;;;;;;9.10;6.93;;;9.10;78.50;;;;;;5069238;28;20028;-42
2022/03/12 07:26:33;;;;;;;10.43;6.85;;;9.10;79.20;;;;;;5081123;28;20040;-42
2022/03/12 07:28:59;;;;;;;8.15;6.47;;;9.10;78.60;;;;;;5067806;28;20055;-41
2022/03/12 07:31:25;;;;;;;7.45;5.88;;;9.20;78.70;;;;;;5081312;28;20020;-42
2022/03/12 07:33:51;;;;;;;8.05;6.22;;;9.20;78.70;;;;;;5068046;28;20044;-41
2022/03/12 07:36:17;;;;;;;9.50;6.95;;;9.30;78.70;;;;;;5078433;28;20028;-43
2022/03/12 07:38:45;;;;;;;10.88;7.20;;;9.30;78.70;;;;;;5070656;28;20037;-43
2022/03/12 07:41:12;;;;;;;9.60;6.03;;;9.40;78.80;;;;;;5076821;28;20035;-42
2022/03/12 07:43:38;;;;;;;7.70;6.22;;;9.40;78.90;;;;;;5071609;28;20055;-41
2022/03/12 07:46:03;;;;;;;9.13;6.30;;;9.40;78.90;;;;;;5074172;28;20016;-40
2022/03/12 07:48:29;;;;;;;9.35;6.68;;;9.50;79.00;;;;;;5074802;28;20042;-42
2022/03/12 07:50:55;;;;;;;8.15;6.38;;;9.50;79.00;;;;;;5070506;28;20024;-41
2022/03/12 07:53:21;;;;;;;9.95;5.95;;;9.60;79.10;;;;;;5078033;28;20040;-40
2022/03/12 07:55:50;;;;;;;7.93;6.30;;;9.70;79.20;;;;;;5068800;28;20060;-41
2022/03/12 07:58:15;;;;;;;9.18;6.15;;;9.80;79.40;;;;;;5079355;28;20028;-41
2022/03/12 08:00:41;;;;;;;7.38;6.25;;;9.80;79.30;;;;;;5069096;28;20024;-40
2022/03/12 08:03:08;;;;;;;8.55;6.45;;;9.90;79.30;;;;;;5079204;28;20032;-43
2022/03/12 08:05:34;;;;;;;9.75;6.55;;;10.00;79.40;;;;;;5068438;28;20406;-41
2022/03/12 08:08:00;;;;;;;7.45;5.88;;;10.00;79.60;;;;;;5080107;28;20479;-42
2022/03/12 08:10:27;;;;;;;7.78;6.35;;;10.00;79.70;;;;;;5067605;28;20028;-38
2022/03/12 08:12:52;;;;;;;5.47;4.75;;;10.10;79.80;;;;;;5080012;28;20049;-42
2022/03/12 08:15:19;;;;;;;7.18;6.13;;;10.10;80.10;;;;;;5067994;28;20029;-41
2022/03/12 08:17:46;;;;;;;8.88;6.30;;;10.10;80.40;;;;;;5078002;28;20119;-42
2022/03/12 08:20:11;;;;;;;6.97;6.03;;;10.10;81.00;;;;;;5069390;28;20040;-43
2022/03/12 08:22:38;;;;;;;7.68;6.18;;;10.20;81.10;;;;;;5075304;28;20039;-42
2022/03/12 08:25:07;;;;;;;6.90;6.20;;;10.30;82.00;;;;;;5070291;28;20029;-42
2022/03/12 08:27:32;;;;;;;10.55;6.90;;;10.30;82.70;;;;;;5074320;28;20407;-42
2022/03/12 08:29:58;;;;;;;7.80;6.45;;;10.40;83.20;;;;;;5073149;28;20025;-42
2022/03/12 08:32:24;;;;;;;7.05;5.65;;;10.50;83.20;;;;;;5070908;28;20415;-42
2022/03/12 08:34:49;;;;;;;6.63;5.47;;;10.70;83.20;;;;;;5075489;28;20051;-42
2022/03/12 08:37:15;;;;;;;7.93;6.45;;;10.90;84.00;;;;;;5069207;28;20028;-43
2022/03/12 08:39:41;;;;;;;5.65;4.90;;;11.00;84.20;;;;;;5077384;28;20039;-43
2022/03/12 08:42:08;;;;;;;6.65;5.88;;;11.00;84.50;;;;;;5068698;28;20029;-42
2022/03/12 08:44:33;;;;;;;7.32;6.45;;;11.00;86.00;;;;;;5078365;28;20037;-41
2022/03/12 08:46:59;;;;;;;6.95;5.97;;;11.10;88.00;;;;;;5066689;28;20437;-44
2022/03/12 08:49:24;;;;;;;7.80;6.32;;;11.10;87.80;;;;;;5079803;28;20033;-41
2022/03/12 08:51:50;;;;;;;13.05;6.97;;;11.10;88.00;;;;;;5066588;28;20116;-43
2022/03/12 08:54:16;;;;;;;8.13;6.30;;;11.10;88.90;;;;;;5079145;28;20032;-40
2022/03/12 08:56:41;;;;;;;6.80;5.97;;;11.10;88.50;;;;;;5066400;28;20044;-42
2022/03/12 08:59:07;;;;;;;7.80;5.70;;;11.10;88.30;;;;;;5078328;28;20024;-42
2022/03/12 09:01:33;;;;;;;6.93;5.95;;;11.20;88.30;;;;;;5067579;28;20036;-38
2022/03/12 09:03:59;;;;;;;6.60;5.90;;;11.20;88.10;;;;;;5075242;28;20035;-42
2022/03/12 09:06:27;;;;;;;10.93;7.07;;;11.20;89.30;;;;;;5070291;28;20017;-42
2022/03/12 09:08:53;;;;;;;9.32;7.35;;;11.20;90.20;;;;;;5072667;28;20027;-42
2022/03/12 09:11:19;;;;;;;9.35;6.97;;;11.20;90.40;;;;;;5073054;28;20116;-38
2022/03/12 09:13:46;;;;;;;6.85;5.90;;;11.30;91.10;;;;;;5069391;28;20123;-41
2022/03/12 09:16:13;;;;;;;8.02;6.10;;;11.30;90.70;;;;;;5076001;28;20020;-42
2022/03/12 09:18:39;;;;;;;6.95;5.10;;;11.40;91.10;;;;;;5068023;28;20055;-41
2022/03/12 09:21:04;;;;;;;7.82;5.68;;;11.40;90.90;;;;;;5076912;28;20099;-42
2022/03/12 09:23:30;;;;;;;6.90;5.40;;;11.50;90.90;;;;;;5068192;28;20050;-43
2022/03/12 09:25:56;;;;;;;6.60;5.80;;;11.50;91.00;;;;;;5077450;28;20079;-42
2022/03/12 09:28:21;;;;;;;7.82;6.10;;;11.60;91.00;;;;;;5066706;28;20468;-43
2022/03/12 09:30:50;;;;;;;7.03;6.20;;;11.60;91.30;;;;;;5076258;28;20535;-41
2022/03/12 09:33:17;;;;;;;9.48;5.15;;;11.70;91.10;;;;;;5086463;28;20044;-42
2022/03/12 09:35:43;;;;;;;7.93;5.95;;;11.80;91.40;;;;;;5072478;28;20067;-42
2022/03/12 09:38:09;;;;;;;8.35;6.25;;;11.80;91.70;;;;;;5086498;28;20035;-42
2022/03/12 09:40:35;;;;;;;5.47;4.78;;;11.90;91.40;;;;;;5073980;28;20272;-42
2022/03/12 09:43:02;;;;;;;5.78;5.07;;;12.00;91.40;;;;;;5085141;28;20613;-41
2022/03/12 09:45:28;;;;;;;10.00;6.22;;;12.10;91.80;;;;;;5076413;28;20036;-41
2022/03/12 09:47:54;;;;;;;6.72;5.40;;;12.10;91.90;;;;;;5079532;28;20024;-41
2022/03/12 09:50:21;;;;;;;6.85;4.93;;;12.20;91.70;;;;;;5077755;28;20108;-41
2022/03/12 09:52:46;;;;;;;5.85;5.05;;;12.30;91.60;;;;;;5079609;28;20127;-41
2022/03/12 09:55:12;;;;;;;9.90;6.00;;;12.40;92.00;;;;;;5081234;28;20765;-42
2022/03/12 09:57:38;;;;;;;6.53;5.30;;;12.50;91.90;;;;;;5076203;28;20633;-42
2022/03/12 10:00:06;;;;;;;6.78;5.22;;;12.50;91.90;;;;;;5083463;28;20024;-42
2022/03/12 10:02:32;;;;;;;8.50;5.15;;;12.60;92.00;;;;;;5075208;28;20035;-43
2022/03/12 10:04:57;;;;;;;7.70;5.32;;;12.60;91.90;;;;;;5084064;28;20024;-42
2022/03/12 10:07:23;;;;;;;7.00;5.03;;;12.70;91.80;;;;;;5073804;28;20074;-43
2022/03/12 10:09:49;;;;;;;7.00;5.20;;;12.80;92.10;;;;;;5083156;28;20103;-42
2022/03/12 10:12:15;;;;;;;5.90;4.85;;;12.90;92.00;;;;;;5073589;28;20027;-42
2022/03/12 10:14:40;;;;;;;7.05;4.95;;;12.90;92.00;;;;;;5085048;28;20040;-38
2022/03/12 10:17:06;;;;;;;4.50;3.88;;;12.90;92.00;;;;;;5071695;28;20050;-42
2022/03/12 10:19:36;;;;;;;5.18;4.50;;;13.00;91.90;;;;;;5085180;28;20111;-42
2022/03/12 10:22:02;;;;;;;7.00;4.47;;;13.10;92.10;;;;;;5071945;28;20020;-43
2022/03/12 10:24:28;;;;;;;4.38;3.80;;;13.20;92.00;;;;;;5084563;28;20031;-42
2022/03/12 10:26:54;;;;;;;6.75;4.15;;;13.30;91.90;;;;;;5074749;28;20353;-42
2022/03/12 10:29:19;;;;;;;3.97;3.28;;;13.30;91.80;;;;;;5083061;28;20077;-42
2022/03/12 10:31:45;;;;;;;3.53;3.05;;;13.30;92.00;;;;;;5076384;28;20040;-43
2022/03/12 10:34:25;;;;;;;4.15;3.08;;;13.40;91.60;;;;;;5079978;28;20047;-41
2022/03/12 10:36:54;;;;;;;5.20;3.42;;;13.40;91.50;;;;;;5077466;28;20120;-42
2022/03/12 10:39:35;;;;;;;4.88;3.30;;;13.50;91.50;;;;;;5078945;28;20091;-41
2022/03/12 10:42:03;;;;;;;3.53;2.85;;;13.50;91.40;;;;;;5078128;28;20395;-42
2022/03/12 10:44:37;;;;;;;4.32;3.00;;;13.50;91.30;;;;;;5079442;28;20031;-43
2022/03/12 10:47:13;;;;;;;5.05;3.20;;;13.50;91.20;;;;;;5080260;28;20660;-41
2022/03/12 10:49:40;;;;;;;4.35;2.80;;;13.60;91.20;;;;;;5085232;28;20695;-41
2022/03/12 10:52:10;;;;;;;5.93;3.08;;;13.60;91.00;;;;;;5084083;28;20008;-41
2022/03/12 10:54:39;;;;;;;5.10;3.40;;;13.70;90.90;;;;;;5081428;28;20040;-42
2022/03/12 10:57:05;;;;;;;4.10;2.80;;;13.70;90.80;;;;;;5085191;28;20119;-42
2022/03/12 10:59:31;;;;;;;4.93;3.25;;;13.80;90.70;;;;;;5078441;28;20060;-41
2022/03/12 11:02:01;;;;;;;4.03;3.50;;;13.80;90.70;;;;;;5086805;28;20089;-43
2022/03/12 11:04:30;;;;;;;5.90;3.35;;;13.80;90.50;;;;;;5077589;28;20028;-44
2022/03/12 11:07:01;;;;;;;4.68;3.20;;;13.90;90.50;;;;;;5086213;28;20526;-41
2022/03/12 11:09:39;;;;;;;4.28;3.38;;;13.90;90.50;;;;;;5077405;28;20491;-43
2022/03/12 11:12:30;;;;;;;4.80;3.40;;;14.00;90.50;;;;;;5086891;28;20027;-42
2022/03/12 11:15:14;;;;;;;4.75;3.33;;;14.10;90.40;;;;;;5077028;28;20047;-43
2022/03/12 11:17:48;;;;;;;3.50;3.03;;;14.10;90.70;;;;;;5086669;28;20034;-41
2022/03/12 11:20:22;;;;;;;5.13;2.90;;;14.20;90.40;;;;;;5078530;28;20737;-41
2022/03/12 11:23:10;;;;;;;3.65;2.72;;;14.30;90.40;;;;;;5085980;28;20154;-42
2022/03/12 11:25:49;;;;;;;4.50;2.80;;;14.30;90.40;;;;;;5080783;28;20064;-41
2022/03/12 11:28:19;;;;;;;3.65;2.50;;;14.40;90.30;;;;;;5083295;28;20056;-41
2022/03/12 11:30:45;;;;;;;3.38;2.78;;;14.50;90.20;;;;;;5079849;28;20104;-43
2022/03/12 11:33:11;;;;;;;7.20;4.00;;;14.60;90.20;;;;;;5086448;28;20016;-42
2022/03/12 11:35:38;;;;;;;5.72;3.17;;;14.60;90.00;;;;;;5076835;28;20016;-42
2022/03/12 11:38:18;;;;;;;5.28;3.53;;;14.60;90.00;;;;;;5086513;28;20023;-42
2022/03/12 11:40:51;;;;;;;6.65;3.88;;;14.60;90.00;;;;;;5077409;28;20028;-43
2022/03/12 11:43:27;;;;;;;6.13;2.90;;;14.70;90.00;;;;;;5086099;28;20074;-42
2022/03/12 11:45:55;;;;;;;3.88;3.25;;;14.80;90.00;;;;;;5076571;28;20489;-41
2022/03/12 11:48:23;;;;;;;5.07;3.40;;;14.90;89.80;;;;;;5083408;28;20825;-42
2022/03/12 11:50:48;;;;;;;3.60;3.28;;;14.90;89.50;;;;;;5078592;28;20464;-41
2022/03/12 11:53:18;;;;;;;3.78;3.40;;;14.90;89.40;;;;;;5067816;28;20036;-43
2022/03/12 11:55:49;;;;;;;4.78;3.03;;;14.90;89.40;;;;;;5078651;28;20076;-42
2022/03/12 11:58:16;;;;;;;4.07;3.00;;;14.90;89.60;;;;;;5067301;28;20039;-41
2022/03/12 12:00:45;;;;;;;3.88;3.03;;;14.90;89.80;;;;;;5080078;28;20024;-42
2022/03/12 12:03:16;;;;;;;5.13;3.22;;;14.90;89.60;;;;;;5067098;28;20152;-42
2022/03/12 12:05:43;;;;;;;4.13;3.13;;;14.90;89.70;;;;;;5079571;28;20479;-42
2022/03/12 12:08:12;;;;;;;3.88;2.95;;;14.80;89.60;;;;;;5068555;28;20029;-44
2022/03/12 12:10:42;;;;;;;3.50;2.63;;;14.90;89.50;;;;;;5079116;28;20036;-43
2022/03/12 12:13:17;;;;;;;3.60;2.70;;;14.90;89.50;;;;;;5068122;28;20063;-41
2022/03/12 12:15:44;;;;;;;4.30;3.20;;;15.00;89.70;;;;;;5079118;28;20059;-43
2022/03/12 12:18:12;;;;;;;4.35;2.95;;;15.10;90.00;;;;;;5068829;28;20380;-42
2022/03/12 12:20:38;;;;;;;3.60;2.50;;;15.10;89.20;;;;;;5076643;28;20039;-43
2022/03/12 12:23:05;;;;;;;5.15;3.63;;;15.20;89.10;;;;;;5069530;28;20523;-42
2022/03/12 12:25:37;;;;;;;5.47;3.38;;;15.30;89.00;;;;;;5074103;28;20115;-43
2022/03/12 12:28:16;;;;;;;4.55;3.40;;;15.40;89.00;;;;;;5072584;28;20036;-41
2022/03/12 12:30:44;;;;;;;3.63;2.80;;;15.50;88.80;;;;;;5073270;28;20020;-41
2022/03/12 12:33:26;;;;;;;4.65;3.15;;;15.40;88.50;;;;;;5073204;28;20025;-43
2022/03/12 12:36:13;;;;;;;6.07;3.53;;;15.40;88.50;;;;;;5074085;28;20024;-44
2022/03/12 12:38:43;;;;;;;4.28;3.00;;;15.30;88.70;;;;;;5069413;28;20384;-43
2022/03/12 12:41:10;;;;;;;4.25;3.10;;;15.30;88.90;;;;;;5075292;28;20508;-41
2022/03/12 12:43:45;;;;;;;4.88;3.67;;;15.50;88.90;;;;;;5072297;28;20036;-42
2022/03/12 12:46:17;;;;;;;6.47;3.50;;;15.60;88.80;;;;;;5074094;28;20020;-43
2022/03/12 12:48:50;;;;;;;7.13;3.60;;;15.70;88.20;;;;;;5091923;28;20036;-43
2022/03/12 12:51:20;;;;;;;4.10;3.13;;;15.80;88.00;;;;;;5081662;28;20024;-41